sensor_id;sensor_type;location;lat;lon;timestamp;temperature;humidity
463;DHT22;218;51.902;9.542;2023-06-26T00:02:16;21.30;1.00
463;DHT22;218;51.902;9.542;2023-06-26T00:04:43;21.20;1.00
463;DHT22;218;51.902;9.542;2023-06-26T00:14:33;21.20;1.00
463;DHT22;218;51.902;9.542;2023-06-26T00:17:00;21.10;1.00
463;DHT22;218;51.902;9.542;2023-06-26T00:21:54;21.00;1.00
463;DHT22;218;51.902;9.542;2023-06-26T00:29:18;20.80;1.00
463;DHT22;218;51.902;9.542;2023-06-26T00:31:45;20.80;1.00
463;DHT22;218;51.902;9.542;2023-06-26T00:34:12;20.70;1.00
463;DHT22;218;51.902;9.542;2023-06-26T00:36:40;20.80;1.00
463;DHT22;218;51.902;9.542;2023-06-26T00:39:08;20.60;1.00
463;DHT22;218;51.902;9.542;2023-06-26T00:44:04;20.60;1.00
463;DHT22;218;51.902;9.542;2023-06-26T00:51:29;20.50;1.00
463;DHT22;218;51.902;9.542;2023-06-26T00:53:57;20.40;1.00
463;DHT22;218;51.902;9.542;2023-06-26T00:56:24;20.40;1.00
463;DHT22;218;51.902;9.542;2023-06-26T01:01:18;20.20;1.00
463;DHT22;218;51.902;9.542;2023-06-26T01:03:50;20.40;1.00
463;DHT22;218;51.902;9.542;2023-06-26T01:06:18;20.70;1.00
463;DHT22;218;51.902;9.542;2023-06-26T01:08:46;20.70;1.00
463;DHT22;218;51.902;9.542;2023-06-26T01:11:14;21.00;1.00
463;DHT22;218;51.902;9.542;2023-06-26T01:13:42;21.10;1.00
463;DHT22;218;51.902;9.542;2023-06-26T01:16:10;21.20;1.00
463;DHT22;218;51.902;9.542;2023-06-26T01:18:39;21.20;1.00
463;DHT22;218;51.902;9.542;2023-06-26T01:21:10;21.40;1.00
463;DHT22;218;51.902;9.542;2023-06-26T01:23:46;21.40;1.00
463;DHT22;218;51.902;9.542;2023-06-26T01:26:20;21.50;1.00
463;DHT22;218;51.902;9.542;2023-06-26T01:28:50;21.50;1.00
463;DHT22;218;51.902;9.542;2023-06-26T01:31:17;21.50;1.00
463;DHT22;218;51.902;9.542;2023-06-26T01:33:46;21.50;1.00
463;DHT22;218;51.902;9.542;2023-06-26T01:36:13;21.50;1.00
463;DHT22;218;51.902;9.542;2023-06-26T01:38:40;21.60;1.00
463;DHT22;218;51.902;9.542;2023-06-26T01:41:07;21.50;1.00
463;DHT22;218;51.902;9.542;2023-06-26T01:43:43;21.60;1.00
463;DHT22;218;51.902;9.542;2023-06-26T01:48:49;21.60;1.00
463;DHT22;218;51.902;9.542;2023-06-26T01:51:20;21.60;1.00
463;DHT22;218;51.902;9.542;2023-06-26T01:53:52;21.60;1.00
463;DHT22;218;51.902;9.542;2023-06-26T01:58:51;21.50;1.00
463;DHT22;218;51.902;9.542;2023-06-26T02:01:20;21.50;1.00
463;DHT22;218;51.902;9.542;2023-06-26T02:03:47;21.60;1.00
463;DHT22;218;51.902;9.542;2023-06-26T02:06:14;21.60;1.00
463;DHT22;218;51.902;9.542;2023-06-26T02:11:09;21.50;1.00
463;DHT22;218;51.902;9.542;2023-06-26T02:13:36;21.50;1.00
463;DHT22;218;51.902;9.542;2023-06-26T02:16:04;21.50;1.00
463;DHT22;218;51.902;9.542;2023-06-26T02:18:31;21.50;1.00
463;DHT22;218;51.902;9.542;2023-06-26T02:20:58;21.50;1.00
463;DHT22;218;51.902;9.542;2023-06-26T02:23:25;21.40;1.00
463;DHT22;218;51.902;9.542;2023-06-26T02:25:52;21.40;1.00
463;DHT22;218;51.902;9.542;2023-06-26T02:28:19;21.40;1.00
463;DHT22;218;51.902;9.542;2023-06-26T02:30:46;21.40;1.00
463;DHT22;218;51.902;9.542;2023-06-26T02:33:14;21.40;1.00
463;DHT22;218;51.902;9.542;2023-06-26T02:35:41;21.40;1.00
463;DHT22;218;51.902;9.542;2023-06-26T02:38:08;21.40;1.00
463;DHT22;218;51.902;9.542;2023-06-26T02:40:35;21.40;1.00
463;DHT22;218;51.902;9.542;2023-06-26T02:45:30;21.30;1.00
463;DHT22;218;51.902;9.542;2023-06-26T02:47:57;21.20;1.00
463;DHT22;218;51.902;9.542;2023-06-26T02:52:52;21.30;1.00
463;DHT22;218;51.902;9.542;2023-06-26T02:55:19;21.30;1.00
463;DHT22;218;51.902;9.542;2023-06-26T02:57:46;21.30;1.00
463;DHT22;218;51.902;9.542;2023-06-26T03:00:14;21.30;1.00
463;DHT22;218;51.902;9.542;2023-06-26T03:05:08;21.20;1.00
463;DHT22;218;51.902;9.542;2023-06-26T03:07:36;21.30;1.00
463;DHT22;218;51.902;9.542;2023-06-26T03:10:03;21.30;1.00
463;DHT22;218;51.902;9.542;2023-06-26T03:14:58;21.20;1.00
463;DHT22;218;51.902;9.542;2023-06-26T03:17:25;21.30;1.00
463;DHT22;218;51.902;9.542;2023-06-26T03:19:51;21.30;1.00
463;DHT22;218;51.902;9.542;2023-06-26T03:22:18;21.20;1.00
463;DHT22;218;51.902;9.542;2023-06-26T03:24:47;21.30;1.00
463;DHT22;218;51.902;9.542;2023-06-26T03:27:13;21.20;1.00
463;DHT22;218;51.902;9.542;2023-06-26T03:29:41;21.20;1.00
463;DHT22;218;51.902;9.542;2023-06-26T03:32:08;21.30;1.00
463;DHT22;218;51.902;9.542;2023-06-26T03:34:35;21.30;1.00
463;DHT22;218;51.902;9.542;2023-06-26T03:37:02;21.30;1.00
463;DHT22;218;51.902;9.542;2023-06-26T03:39:29;21.30;1.00
463;DHT22;218;51.902;9.542;2023-06-26T03:41:57;21.30;1.00
463;DHT22;218;51.902;9.542;2023-06-26T03:44:26;21.30;1.00
463;DHT22;218;51.902;9.542;2023-06-26T03:46:53;21.30;1.00
463;DHT22;218;51.902;9.542;2023-06-26T03:49:20;21.30;1.00
463;DHT22;218;51.902;9.542;2023-06-26T03:51:46;21.30;1.00
463;DHT22;218;51.902;9.542;2023-06-26T03:54:13;21.30;1.00
463;DHT22;218;51.902;9.542;2023-06-26T03:59:09;21.30;1.00
463;DHT22;218;51.902;9.542;2023-06-26T04:01:37;21.30;1.00
463;DHT22;218;51.902;9.542;2023-06-26T04:04:04;21.40;1.00
463;DHT22;218;51.902;9.542;2023-06-26T04:06:31;21.30;1.00
463;DHT22;218;51.902;9.542;2023-06-26T04:08:58;21.40;1.00
463;DHT22;218;51.902;9.542;2023-06-26T04:11:25;21.40;1.00
463;DHT22;218;51.902;9.542;2023-06-26T04:13:52;21.50;1.00
463;DHT22;218;51.902;9.542;2023-06-26T04:16:21;21.40;1.00
463;DHT22;218;51.902;9.542;2023-06-26T04:18:50;21.50;1.00
463;DHT22;218;51.902;9.542;2023-06-26T04:21:17;21.50;1.00
463;DHT22;218;51.902;9.542;2023-06-26T04:23:45;21.40;1.00
463;DHT22;218;51.902;9.542;2023-06-26T04:26:13;21.50;1.00
463;DHT22;218;51.902;9.542;2023-06-26T04:28:40;21.60;1.00
463;DHT22;218;51.902;9.542;2023-06-26T04:31:08;21.50;1.00
463;DHT22;218;51.902;9.542;2023-06-26T04:33:37;21.60;1.00
463;DHT22;218;51.902;9.542;2023-06-26T04:36:04;21.60;1.00
463;DHT22;218;51.902;9.542;2023-06-26T04:43:25;21.60;1.00
463;DHT22;218;51.902;9.542;2023-06-26T04:48:19;21.70;1.00
463;DHT22;218;51.902;9.542;2023-06-26T04:50:48;21.80;1.00
463;DHT22;218;51.902;9.542;2023-06-26T04:55:46;21.80;1.00
463;DHT22;218;51.902;9.542;2023-06-26T04:58:13;21.80;1.00
463;DHT22;218;51.902;9.542;2023-06-26T05:00:40;21.90;1.00
463;DHT22;218;51.902;9.542;2023-06-26T05:03:09;22.00;1.00
463;DHT22;218;51.902;9.542;2023-06-26T05:05:35;22.00;1.00
463;DHT22;218;51.902;9.542;2023-06-26T05:08:15;22.10;1.00
463;DHT22;218;51.902;9.542;2023-06-26T05:10:42;22.10;1.00
463;DHT22;218;51.902;9.542;2023-06-26T05:13:10;22.20;1.00
463;DHT22;218;51.902;9.542;2023-06-26T05:15:37;22.20;1.00
463;DHT22;218;51.902;9.542;2023-06-26T05:18:04;22.20;1.00
463;DHT22;218;51.902;9.542;2023-06-26T05:20:32;22.30;1.00
463;DHT22;218;51.902;9.542;2023-06-26T05:22:58;22.30;1.00
463;DHT22;218;51.902;9.542;2023-06-26T05:25:27;22.40;1.00
463;DHT22;218;51.902;9.542;2023-06-26T05:27:55;22.50;1.00
463;DHT22;218;51.902;9.542;2023-06-26T05:30:23;22.50;1.00
463;DHT22;218;51.902;9.542;2023-06-26T05:32:51;22.50;1.00
463;DHT22;218;51.902;9.542;2023-06-26T05:35:20;22.60;1.00
463;DHT22;218;51.902;9.542;2023-06-26T05:37:48;22.70;1.00
463;DHT22;218;51.902;9.542;2023-06-26T05:40:17;22.70;1.00
463;DHT22;218;51.902;9.542;2023-06-26T05:42:46;22.80;1.00
463;DHT22;218;51.902;9.542;2023-06-26T05:45:13;22.90;1.00
463;DHT22;218;51.902;9.542;2023-06-26T05:47:40;23.00;1.00
463;DHT22;218;51.902;9.542;2023-06-26T05:50:09;23.10;1.00
463;DHT22;218;51.902;9.542;2023-06-26T05:52:36;23.20;1.00
463;DHT22;218;51.902;9.542;2023-06-26T05:55:05;23.30;1.00
463;DHT22;218;51.902;9.542;2023-06-26T05:57:32;23.40;1.00
463;DHT22;218;51.902;9.542;2023-06-26T06:00:01;23.40;1.00
463;DHT22;218;51.902;9.542;2023-06-26T06:02:31;23.50;1.00
463;DHT22;218;51.902;9.542;2023-06-26T06:04:58;23.70;1.00
463;DHT22;218;51.902;9.542;2023-06-26T06:07:25;23.70;1.00
463;DHT22;218;51.902;9.542;2023-06-26T06:09:51;23.90;1.00
463;DHT22;218;51.902;9.542;2023-06-26T06:12:18;23.90;1.00
463;DHT22;218;51.902;9.542;2023-06-26T06:14:45;24.00;1.00
463;DHT22;218;51.902;9.542;2023-06-26T06:17:13;24.10;1.00
463;DHT22;218;51.902;9.542;2023-06-26T06:19:40;24.20;1.00
463;DHT22;218;51.902;9.542;2023-06-26T06:22:07;24.30;1.00
463;DHT22;218;51.902;9.542;2023-06-26T06:24:34;24.50;1.00
463;DHT22;218;51.902;9.542;2023-06-26T06:27:01;24.60;1.00
463;DHT22;218;51.902;9.542;2023-06-26T06:29:28;24.70;1.00
463;DHT22;218;51.902;9.542;2023-06-26T06:31:56;24.80;1.00
463;DHT22;218;51.902;9.542;2023-06-26T06:34:24;24.90;1.00
463;DHT22;218;51.902;9.542;2023-06-26T06:36:51;25.10;1.00
463;DHT22;218;51.902;9.542;2023-06-26T06:39:18;25.20;1.00
463;DHT22;218;51.902;9.542;2023-06-26T06:41:44;25.30;1.00
463;DHT22;218;51.902;9.542;2023-06-26T06:44:11;25.40;1.00
463;DHT22;218;51.902;9.542;2023-06-26T06:46:38;25.50;1.00
463;DHT22;218;51.902;9.542;2023-06-26T06:49:05;25.60;1.00
463;DHT22;218;51.902;9.542;2023-06-26T06:51:33;25.70;1.00
463;DHT22;218;51.902;9.542;2023-06-26T06:54:00;25.90;1.00
463;DHT22;218;51.902;9.542;2023-06-26T06:56:29;26.00;1.00
463;DHT22;218;51.902;9.542;2023-06-26T06:58:56;26.10;1.00
463;DHT22;218;51.902;9.542;2023-06-26T07:01:22;26.30;1.00
463;DHT22;218;51.902;9.542;2023-06-26T07:03:49;26.40;1.00
463;DHT22;218;51.902;9.542;2023-06-26T07:06:16;26.50;1.00
463;DHT22;218;51.902;9.542;2023-06-26T07:08:44;26.60;1.00
463;DHT22;218;51.902;9.542;2023-06-26T07:11:11;26.70;1.00
463;DHT22;218;51.902;9.542;2023-06-26T07:13:38;26.80;1.00
463;DHT22;218;51.902;9.542;2023-06-26T07:16:05;27.00;1.00
463;DHT22;218;51.902;9.542;2023-06-26T07:18:32;27.00;1.00
463;DHT22;218;51.902;9.542;2023-06-26T07:20:59;27.20;1.00
463;DHT22;218;51.902;9.542;2023-06-26T07:23:25;27.20;1.00
463;DHT22;218;51.902;9.542;2023-06-26T07:25:54;27.40;1.00
463;DHT22;218;51.902;9.542;2023-06-26T07:28:21;27.40;1.00
463;DHT22;218;51.902;9.542;2023-06-26T07:30:48;27.60;1.00
463;DHT22;218;51.902;9.542;2023-06-26T07:33:15;27.70;1.00
463;DHT22;218;51.902;9.542;2023-06-26T07:40:36;27.70;1.00
463;DHT22;218;51.902;9.542;2023-06-26T07:43:04;28.00;1.00
463;DHT22;218;51.902;9.542;2023-06-26T07:45:31;28.10;1.00
463;DHT22;218;51.902;9.542;2023-06-26T07:47:58;28.20;1.00
463;DHT22;218;51.902;9.542;2023-06-26T07:50:25;28.40;1.00
463;DHT22;218;51.902;9.542;2023-06-26T07:52:52;28.40;1.00
463;DHT22;218;51.902;9.542;2023-06-26T07:55:19;28.50;1.00
463;DHT22;218;51.902;9.542;2023-06-26T07:57:45;28.70;1.00
463;DHT22;218;51.902;9.542;2023-06-26T08:00:14;28.80;1.00
463;DHT22;218;51.902;9.542;2023-06-26T08:02:41;28.90;1.00
463;DHT22;218;51.902;9.542;2023-06-26T08:05:08;28.90;1.00
463;DHT22;218;51.902;9.542;2023-06-26T08:07:35;29.00;1.00
463;DHT22;218;51.902;9.542;2023-06-26T08:10:02;29.10;1.00
463;DHT22;218;51.902;9.542;2023-06-26T08:12:29;29.20;1.00
463;DHT22;218;51.902;9.542;2023-06-26T08:14:56;29.30;1.00
463;DHT22;218;51.902;9.542;2023-06-26T08:17:24;29.40;1.00
463;DHT22;218;51.902;9.542;2023-06-26T08:19:51;29.50;1.00
463;DHT22;218;51.902;9.542;2023-06-26T08:22:18;29.50;1.00
463;DHT22;218;51.902;9.542;2023-06-26T08:24:45;29.60;1.00
463;DHT22;218;51.902;9.542;2023-06-26T08:27:12;29.60;1.00
463;DHT22;218;51.902;9.542;2023-06-26T08:29:38;29.70;1.00
463;DHT22;218;51.902;9.542;2023-06-26T08:32:06;29.70;1.00
463;DHT22;218;51.902;9.542;2023-06-26T08:34:34;29.90;1.00
463;DHT22;218;51.902;9.542;2023-06-26T08:37:01;29.90;1.00
463;DHT22;218;51.902;9.542;2023-06-26T08:39:28;30.00;1.00
463;DHT22;218;51.902;9.542;2023-06-26T08:41:55;30.10;1.00
463;DHT22;218;51.902;9.542;2023-06-26T08:44:25;30.20;1.00
463;DHT22;218;51.902;9.542;2023-06-26T08:46:52;30.20;1.00
463;DHT22;218;51.902;9.542;2023-06-26T08:49:21;30.30;1.00
463;DHT22;218;51.902;9.542;2023-06-26T08:51:52;30.40;1.00
463;DHT22;218;51.902;9.542;2023-06-26T08:54:27;30.50;1.00
463;DHT22;218;51.902;9.542;2023-06-26T08:56:55;30.60;1.00
463;DHT22;218;51.902;9.542;2023-06-26T08:59:24;30.70;1.00
463;DHT22;218;51.902;9.542;2023-06-26T09:01:51;30.70;1.00
463;DHT22;218;51.902;9.542;2023-06-26T09:04:21;30.80;1.00
463;DHT22;218;51.902;9.542;2023-06-26T09:06:52;30.90;1.00
463;DHT22;218;51.902;9.542;2023-06-26T09:09:19;31.00;1.00
463;DHT22;218;51.902;9.542;2023-06-26T09:11:47;31.00;1.00
463;DHT22;218;51.902;9.542;2023-06-26T09:14:14;31.10;1.00
463;DHT22;218;51.902;9.542;2023-06-26T09:16:41;31.20;1.00
463;DHT22;218;51.902;9.542;2023-06-26T09:19:10;31.30;1.00
463;DHT22;218;51.902;9.542;2023-06-26T09:21:38;31.30;1.00
463;DHT22;218;51.902;9.542;2023-06-26T09:24:08;31.40;1.00
463;DHT22;218;51.902;9.542;2023-06-26T09:26:36;31.50;1.00
463;DHT22;218;51.902;9.542;2023-06-26T09:29:04;31.50;1.00
463;DHT22;218;51.902;9.542;2023-06-26T09:31:32;31.60;1.00
463;DHT22;218;51.902;9.542;2023-06-26T09:34:00;31.60;1.00
463;DHT22;218;51.902;9.542;2023-06-26T09:36:29;31.70;1.00
463;DHT22;218;51.902;9.542;2023-06-26T09:38:59;31.70;1.00
463;DHT22;218;51.902;9.542;2023-06-26T09:41:27;31.80;1.00
463;DHT22;218;51.902;9.542;2023-06-26T09:43:54;31.90;1.00
463;DHT22;218;51.902;9.542;2023-06-26T09:46:27;31.90;1.00
463;DHT22;218;51.902;9.542;2023-06-26T09:48:58;32.00;1.00
463;DHT22;218;51.902;9.542;2023-06-26T09:51:26;32.00;1.00
463;DHT22;218;51.902;9.542;2023-06-26T09:53:52;32.10;1.00
463;DHT22;218;51.902;9.542;2023-06-26T09:56:19;32.10;1.00
463;DHT22;218;51.902;9.542;2023-06-26T09:58:49;32.10;1.00
463;DHT22;218;51.902;9.542;2023-06-26T10:01:17;32.10;1.00
463;DHT22;218;51.902;9.542;2023-06-26T10:03:44;32.10;1.00
463;DHT22;218;51.902;9.542;2023-06-26T10:06:12;32.10;1.00
463;DHT22;218;51.902;9.542;2023-06-26T10:08:39;32.00;1.00
463;DHT22;218;51.902;9.542;2023-06-26T10:11:11;31.80;1.00
463;DHT22;218;51.902;9.542;2023-06-26T10:13:41;31.70;1.00
463;DHT22;218;51.902;9.542;2023-06-26T10:16:13;31.60;1.00
463;DHT22;218;51.902;9.542;2023-06-26T10:18:44;31.50;1.00
463;DHT22;218;51.902;9.542;2023-06-26T10:21:12;31.30;1.00
463;DHT22;218;51.902;9.542;2023-06-26T10:23:42;31.30;1.00
463;DHT22;218;51.902;9.542;2023-06-26T10:26:09;31.20;1.00
463;DHT22;218;51.902;9.542;2023-06-26T10:28:38;31.10;1.00
463;DHT22;218;51.902;9.542;2023-06-26T10:31:09;31.00;1.00
463;DHT22;218;51.902;9.542;2023-06-26T10:33:38;30.90;1.00
463;DHT22;218;51.902;9.542;2023-06-26T10:36:15;30.80;1.00
463;DHT22;218;51.902;9.542;2023-06-26T10:38:49;30.70;1.00
463;DHT22;218;51.902;9.542;2023-06-26T10:41:19;30.70;1.00
463;DHT22;218;51.902;9.542;2023-06-26T10:43:49;30.60;1.00
463;DHT22;218;51.902;9.542;2023-06-26T10:46:18;30.60;1.00
463;DHT22;218;51.902;9.542;2023-06-26T10:49:00;30.60;1.00
463;DHT22;218;51.902;9.542;2023-06-26T10:51:28;30.60;1.00
463;DHT22;218;51.902;9.542;2023-06-26T10:53:55;30.50;1.00
463;DHT22;218;51.902;9.542;2023-06-26T10:56:40;30.50;1.00
463;DHT22;218;51.902;9.542;2023-06-26T10:59:16;30.50;1.00
463;DHT22;218;51.902;9.542;2023-06-26T11:01:44;30.50;1.00
463;DHT22;218;51.902;9.542;2023-06-26T11:04:14;30.50;1.00
463;DHT22;218;51.902;9.542;2023-06-26T11:06:46;30.50;1.00
463;DHT22;218;51.902;9.542;2023-06-26T11:09:17;30.60;1.00
463;DHT22;218;51.902;9.542;2023-06-26T11:12:00;30.60;1.00
463;DHT22;218;51.902;9.542;2023-06-26T11:14:36;30.70;1.00
463;DHT22;218;51.902;9.542;2023-06-26T11:17:03;30.80;1.00
463;DHT22;218;51.902;9.542;2023-06-26T11:19:32;30.90;1.00
463;DHT22;218;51.902;9.542;2023-06-26T11:22:03;31.00;1.00
463;DHT22;218;51.902;9.542;2023-06-26T11:24:31;31.00;1.00
463;DHT22;218;51.902;9.542;2023-06-26T11:27:02;31.00;1.00
463;DHT22;218;51.902;9.542;2023-06-26T11:29:30;31.00;1.00
463;DHT22;218;51.902;9.542;2023-06-26T11:32:02;30.90;1.00
463;DHT22;218;51.902;9.542;2023-06-26T11:34:33;30.80;1.00
463;DHT22;218;51.902;9.542;2023-06-26T11:37:00;30.80;1.00
463;DHT22;218;51.902;9.542;2023-06-26T11:39:28;30.70;1.00
463;DHT22;218;51.902;9.542;2023-06-26T11:41:56;30.60;1.00
463;DHT22;218;51.902;9.542;2023-06-26T11:44:23;30.60;1.00
463;DHT22;218;51.902;9.542;2023-06-26T11:46:53;30.50;1.00
463;DHT22;218;51.902;9.542;2023-06-26T11:49:21;30.40;1.00
463;DHT22;218;51.902;9.542;2023-06-26T11:51:53;30.40;1.00
463;DHT22;218;51.902;9.542;2023-06-26T11:54:27;30.40;1.00
463;DHT22;218;51.902;9.542;2023-06-26T11:56:58;30.40;1.00
463;DHT22;218;51.902;9.542;2023-06-26T11:59:33;31.20;1.00
463;DHT22;218;51.902;9.542;2023-06-26T12:02:04;32.60;1.00
463;DHT22;218;51.902;9.542;2023-06-26T12:04:32;33.80;1.00
463;DHT22;218;51.902;9.542;2023-06-26T12:07:01;34.10;1.00
463;DHT22;218;51.902;9.542;2023-06-26T12:09:30;34.10;1.00
463;DHT22;218;51.902;9.542;2023-06-26T12:11:58;33.90;1.00
463;DHT22;218;51.902;9.542;2023-06-26T12:14:26;33.60;1.00
463;DHT22;218;51.902;9.542;2023-06-26T12:16:54;33.30;1.00
463;DHT22;218;51.902;9.542;2023-06-26T12:19:24;33.10;1.00
463;DHT22;218;51.902;9.542;2023-06-26T12:21:52;32.80;1.00
463;DHT22;218;51.902;9.542;2023-06-26T12:24:23;32.60;1.00
463;DHT22;218;51.902;9.542;2023-06-26T12:26:53;32.30;1.00
463;DHT22;218;51.902;9.542;2023-06-26T12:29:29;32.10;1.00
463;DHT22;218;51.902;9.542;2023-06-26T12:31:56;32.00;1.00
463;DHT22;218;51.902;9.542;2023-06-26T12:34:27;31.90;1.00
463;DHT22;218;51.902;9.542;2023-06-26T12:37:00;31.80;1.00
463;DHT22;218;51.902;9.542;2023-06-26T12:39:28;31.90;1.00
463;DHT22;218;51.902;9.542;2023-06-26T12:41:57;31.90;1.00
463;DHT22;218;51.902;9.542;2023-06-26T12:44:27;31.90;1.00
463;DHT22;218;51.902;9.542;2023-06-26T12:46:57;31.80;1.00
463;DHT22;218;51.902;9.542;2023-06-26T12:49:31;31.70;1.00
463;DHT22;218;51.902;9.542;2023-06-26T12:51:59;31.70;1.00
463;DHT22;218;51.902;9.542;2023-06-26T12:54:28;31.60;1.00
463;DHT22;218;51.902;9.542;2023-06-26T12:56:55;31.60;1.00
463;DHT22;218;51.902;9.542;2023-06-26T12:59:22;31.50;1.00
463;DHT22;218;51.902;9.542;2023-06-26T13:01:49;31.40;1.00
463;DHT22;218;51.902;9.542;2023-06-26T13:04:16;31.40;1.00
463;DHT22;218;51.902;9.542;2023-06-26T13:06:43;31.30;1.00
463;DHT22;218;51.902;9.542;2023-06-26T13:09:10;31.30;1.00
463;DHT22;218;51.902;9.542;2023-06-26T13:11:38;31.30;1.00
463;DHT22;218;51.902;9.542;2023-06-26T13:14:05;31.30;1.00
463;DHT22;218;51.902;9.542;2023-06-26T13:16:32;31.30;1.00
463;DHT22;218;51.902;9.542;2023-06-26T13:18:59;31.40;1.00
463;DHT22;218;51.902;9.542;2023-06-26T13:21:27;31.40;1.00
463;DHT22;218;51.902;9.542;2023-06-26T13:23:54;31.50;1.00
463;DHT22;218;51.902;9.542;2023-06-26T13:26:22;31.60;1.00
463;DHT22;218;51.902;9.542;2023-06-26T13:28:52;31.60;1.00
463;DHT22;218;51.902;9.542;2023-06-26T13:31:19;31.70;1.00
463;DHT22;218;51.902;9.542;2023-06-26T13:33:46;31.70;1.00
463;DHT22;218;51.902;9.542;2023-06-26T13:36:14;31.70;1.00
463;DHT22;218;51.902;9.542;2023-06-26T13:38:41;31.70;1.00
463;DHT22;218;51.902;9.542;2023-06-26T13:41:08;31.70;1.00
463;DHT22;218;51.902;9.542;2023-06-26T13:43:35;31.60;1.00
463;DHT22;218;51.902;9.542;2023-06-26T13:46:03;31.60;1.00
463;DHT22;218;51.902;9.542;2023-06-26T13:48:30;31.50;1.00
463;DHT22;218;51.902;9.542;2023-06-26T13:50:58;31.50;1.00
463;DHT22;218;51.902;9.542;2023-06-26T13:53:26;31.40;1.00
463;DHT22;218;51.902;9.542;2023-06-26T13:55:53;31.40;1.00
463;DHT22;218;51.902;9.542;2023-06-26T13:58:20;31.30;1.00
463;DHT22;218;51.902;9.542;2023-06-26T14:00:52;31.30;1.00
463;DHT22;218;51.902;9.542;2023-06-26T14:03:20;31.20;1.00
463;DHT22;218;51.902;9.542;2023-06-26T14:05:47;31.20;1.00
463;DHT22;218;51.902;9.542;2023-06-26T14:08:14;31.10;1.00
463;DHT22;218;51.902;9.542;2023-06-26T14:10:41;31.10;1.00
463;DHT22;218;51.902;9.542;2023-06-26T14:13:08;31.00;1.00
463;DHT22;218;51.902;9.542;2023-06-26T14:15:37;31.00;1.00
463;DHT22;218;51.902;9.542;2023-06-26T14:18:05;31.10;1.00
463;DHT22;218;51.902;9.542;2023-06-26T14:20:34;31.10;1.00
463;DHT22;218;51.902;9.542;2023-06-26T14:23:03;31.10;1.00
463;DHT22;218;51.902;9.542;2023-06-26T14:25:30;31.10;1.00
463;DHT22;218;51.902;9.542;2023-06-26T14:27:58;31.10;1.00
463;DHT22;218;51.902;9.542;2023-06-26T14:30:25;31.10;1.00
463;DHT22;218;51.902;9.542;2023-06-26T14:32:52;31.20;1.00
463;DHT22;218;51.902;9.542;2023-06-26T14:35:19;31.20;1.00
463;DHT22;218;51.902;9.542;2023-06-26T14:37:47;31.20;1.00
463;DHT22;218;51.902;9.542;2023-06-26T14:40:14;31.20;1.00
463;DHT22;218;51.902;9.542;2023-06-26T14:42:41;31.10;1.00
463;DHT22;218;51.902;9.542;2023-06-26T14:45:13;31.10;1.00
463;DHT22;218;51.902;9.542;2023-06-26T14:47:40;31.00;1.00
463;DHT22;218;51.902;9.542;2023-06-26T14:50:08;31.00;1.00
463;DHT22;218;51.902;9.542;2023-06-26T14:52:35;31.00;1.00
463;DHT22;218;51.902;9.542;2023-06-26T14:55:04;30.90;1.00
463;DHT22;218;51.902;9.542;2023-06-26T14:57:31;30.90;1.00
463;DHT22;218;51.902;9.542;2023-06-26T14:59:58;30.90;1.00
463;DHT22;218;51.902;9.542;2023-06-26T15:02:25;30.90;1.00
463;DHT22;218;51.902;9.542;2023-06-26T15:04:53;30.90;1.00
463;DHT22;218;51.902;9.542;2023-06-26T15:07:20;30.90;1.00
463;DHT22;218;51.902;9.542;2023-06-26T15:09:46;30.90;1.00
463;DHT22;218;51.902;9.542;2023-06-26T15:12:16;30.90;1.00
463;DHT22;218;51.902;9.542;2023-06-26T15:14:43;30.90;1.00
463;DHT22;218;51.902;9.542;2023-06-26T15:17:10;30.90;1.00
463;DHT22;218;51.902;9.542;2023-06-26T15:19:37;30.90;1.00
463;DHT22;218;51.902;9.542;2023-06-26T15:22:04;30.80;1.00
463;DHT22;218;51.902;9.542;2023-06-26T15:24:31;30.80;1.00
463;DHT22;218;51.902;9.542;2023-06-26T15:26:58;30.80;1.00
463;DHT22;218;51.902;9.542;2023-06-26T15:29:26;30.70;1.00
463;DHT22;218;51.902;9.542;2023-06-26T15:31:53;30.70;1.00
463;DHT22;218;51.902;9.542;2023-06-26T15:34:20;30.70;1.00
463;DHT22;218;51.902;9.542;2023-06-26T15:36:47;30.60;1.00
463;DHT22;218;51.902;9.542;2023-06-26T15:39:15;30.60;1.00
463;DHT22;218;51.902;9.542;2023-06-26T15:41:43;30.50;1.00
463;DHT22;218;51.902;9.542;2023-06-26T15:44:10;30.40;1.00
463;DHT22;218;51.902;9.542;2023-06-26T15:46:38;30.30;1.00
463;DHT22;218;51.902;9.542;2023-06-26T15:49:05;30.30;1.00
463;DHT22;218;51.902;9.542;2023-06-26T15:51:32;30.20;1.00
463;DHT22;218;51.902;9.542;2023-06-26T15:54:00;30.10;1.00
463;DHT22;218;51.902;9.542;2023-06-26T15:56:27;30.10;1.00
463;DHT22;218;51.902;9.542;2023-06-26T15:58:54;30.00;1.00
463;DHT22;218;51.902;9.542;2023-06-26T16:01:21;29.90;1.00
463;DHT22;218;51.902;9.542;2023-06-26T16:03:49;29.90;1.00
463;DHT22;218;51.902;9.542;2023-06-26T16:06:16;29.90;1.00
463;DHT22;218;51.902;9.542;2023-06-26T16:08:44;29.80;1.00
463;DHT22;218;51.902;9.542;2023-06-26T16:11:13;29.70;1.00
463;DHT22;218;51.902;9.542;2023-06-26T16:13:40;29.70;1.00
463;DHT22;218;51.902;9.542;2023-06-26T16:16:07;29.60;1.00
463;DHT22;218;51.902;9.542;2023-06-26T16:18:34;29.50;1.00
463;DHT22;218;51.902;9.542;2023-06-26T16:21:02;29.50;1.00
463;DHT22;218;51.902;9.542;2023-06-26T16:23:29;29.40;1.00
463;DHT22;218;51.902;9.542;2023-06-26T16:25:56;29.40;1.00
463;DHT22;218;51.902;9.542;2023-06-26T16:28:23;29.30;1.00
463;DHT22;218;51.902;9.542;2023-06-26T16:30:50;29.20;1.00
463;DHT22;218;51.902;9.542;2023-06-26T16:33:17;29.20;1.00
463;DHT22;218;51.902;9.542;2023-06-26T16:35:43;29.10;1.00
463;DHT22;218;51.902;9.542;2023-06-26T16:38:12;29.10;1.00
463;DHT22;218;51.902;9.542;2023-06-26T16:40:39;29.10;1.00
463;DHT22;218;51.902;9.542;2023-06-26T16:43:06;29.00;1.00
463;DHT22;218;51.902;9.542;2023-06-26T16:45:32;29.00;1.00
463;DHT22;218;51.902;9.542;2023-06-26T16:48:00;28.90;1.00
463;DHT22;218;51.902;9.542;2023-06-26T16:50:27;28.80;1.00
463;DHT22;218;51.902;9.542;2023-06-26T16:52:54;28.80;1.00
463;DHT22;218;51.902;9.542;2023-06-26T16:55:22;28.70;1.00
463;DHT22;218;51.902;9.542;2023-06-26T16:57:49;28.60;1.00
463;DHT22;218;51.902;9.542;2023-06-26T17:00:16;28.50;1.00
463;DHT22;218;51.902;9.542;2023-06-26T17:02:44;28.50;1.00
463;DHT22;218;51.902;9.542;2023-06-26T17:05:11;28.40;1.00
463;DHT22;218;51.902;9.542;2023-06-26T17:07:38;28.40;1.00
463;DHT22;218;51.902;9.542;2023-06-26T17:10:06;28.30;1.00
463;DHT22;218;51.902;9.542;2023-06-26T17:12:37;28.30;1.00
463;DHT22;218;51.902;9.542;2023-06-26T17:15:06;28.20;1.00
463;DHT22;218;51.902;9.542;2023-06-26T17:17:33;28.20;1.00
463;DHT22;218;51.902;9.542;2023-06-26T17:20:00;28.10;1.00
463;DHT22;218;51.902;9.542;2023-06-26T17:22:28;28.10;1.00
463;DHT22;218;51.902;9.542;2023-06-26T17:24:55;28.00;1.00
463;DHT22;218;51.902;9.542;2023-06-26T17:27:24;27.90;1.00
463;DHT22;218;51.902;9.542;2023-06-26T17:29:54;27.90;1.00
463;DHT22;218;51.902;9.542;2023-06-26T17:32:21;27.90;1.00
463;DHT22;218;51.902;9.542;2023-06-26T17:34:48;27.80;1.00
463;DHT22;218;51.902;9.542;2023-06-26T17:37:15;27.70;1.00
463;DHT22;218;51.902;9.542;2023-06-26T17:39:42;27.70;1.00
463;DHT22;218;51.902;9.542;2023-06-26T17:42:09;27.60;1.00
463;DHT22;218;51.902;9.542;2023-06-26T17:44:36;27.60;1.00
463;DHT22;218;51.902;9.542;2023-06-26T17:47:05;27.60;1.00
463;DHT22;218;51.902;9.542;2023-06-26T17:49:32;27.50;1.00
463;DHT22;218;51.902;9.542;2023-06-26T17:51:59;27.50;1.00
463;DHT22;218;51.902;9.542;2023-06-26T17:54:27;27.40;1.00
463;DHT22;218;51.902;9.542;2023-06-26T17:56:54;27.40;1.00